Terminal Aerodrome Forecast
Issued by NWS Buffalo, NY

Home | Current Version | Previous Version | Text Only | Print | Product List | Glossary On
Versions: 1 2 3 4 5 6 7 8 9 10 11 12 13 14 15 16 17 18 19 20 21 22 23 24 25 26 27
000
FTUS41 KBUF 270500
TAFROC
TAF
KROC 270531Z 2706/2806 26004KT P6SM -SN OVC050
     FM270800 29004KT P6SM VCSH BKN080
     FM271100 27004KT P6SM BKN120
     FM271500 29007KT P6SM BKN025
     FM271700 28008KT P6SM SCT025
     FM280200 24010KT P6SM SCT200=

USA.gov is the U.S. government's official web portal to all federal, state and local government web resources and services.